createdAt,value
2023-05-13T00:00:17.962Z,12.00
2023-05-13T00:02:47.978Z,13.03
2023-05-13T00:05:16.430Z,12.47
2023-05-13T00:07:44.866Z,12.07
2023-05-13T00:10:13.334Z,11.20
2023-05-13T00:12:41.728Z,11.27
2023-05-13T00:15:10.526Z,12.50
2023-05-13T00:17:38.988Z,11.37
2023-05-13T00:20:09.845Z,11.30
2023-05-13T00:22:38.262Z,10.40
2023-05-13T00:25:07.015Z,12.07
2023-05-13T00:27:35.469Z,10.60
2023-05-13T00:30:05.631Z,11.97
2023-05-13T00:32:34.494Z,10.93
2023-05-13T00:35:02.980Z,10.97
2023-05-13T00:37:32.890Z,11.50
2023-05-13T00:40:01.329Z,10.60
2023-05-13T00:42:29.923Z,12.50
2023-05-13T00:44:58.744Z,9.83
2023-05-13T00:47:27.257Z,11.93
2023-05-13T00:49:56.035Z,15.67
2023-05-13T00:52:24.584Z,10.70
2023-05-13T00:54:54.408Z,10.13
2023-05-13T00:57:22.992Z,9.90
2023-05-13T00:59:51.660Z,9.00
2023-05-13T01:02:24.011Z,10.93
2023-05-13T01:04:56.446Z,9.97
2023-05-13T01:07:27.655Z,10.40
2023-05-13T01:10:02.687Z,9.67
2023-05-13T01:12:32.976Z,9.97
2023-05-13T01:15:05.168Z,10.33
2023-05-13T01:17:34.928Z,8.80
2023-05-13T01:20:04.696Z,7.87
2023-05-13T01:22:34.502Z,6.90
2023-05-13T01:25:02.935Z,10.17
2023-05-13T01:27:31.350Z,10.90
2023-05-13T01:29:59.869Z,9.30
2023-05-13T01:32:28.463Z,8.40
2023-05-13T01:34:57.391Z,9.73
2023-05-13T01:37:25.953Z,8.00
2023-05-13T01:39:56.000Z,7.93
2023-05-13T01:42:25.021Z,7.33
2023-05-13T01:44:53.642Z,6.73
2023-05-13T01:47:22.103Z,8.77
2023-05-13T01:49:50.866Z,9.30
2023-05-13T01:52:19.271Z,9.27
2023-05-13T01:54:47.707Z,7.93
2023-05-13T01:57:17.484Z,7.43
2023-05-13T01:59:46.029Z,9.03
2023-05-13T02:02:14.522Z,6.97
2023-05-13T02:04:42.950Z,5.20
2023-05-13T02:07:11.356Z,6.67
2023-05-13T02:09:39.786Z,4.17
2023-05-13T02:12:08.806Z,8.30
2023-05-13T02:14:38.860Z,7.00
2023-05-13T02:17:07.318Z,5.90
2023-05-13T02:19:35.848Z,3.97
2023-05-13T02:22:04.262Z,6.17
2023-05-13T02:24:32.906Z,6.67
2023-05-13T02:27:01.333Z,8.00
2023-05-13T02:29:29.758Z,6.27
2023-05-13T02:31:59.638Z,4.20
2023-05-13T02:34:28.084Z,3.07
2023-05-13T02:36:56.463Z,5.17
2023-05-13T02:39:24.870Z,6.13
2023-05-13T02:41:53.253Z,7.33
2023-05-13T02:44:21.666Z,4.43
2023-05-13T02:46:50.138Z,5.13
2023-05-13T02:49:20.094Z,3.90
2023-05-13T02:51:48.533Z,7.03
2023-05-13T02:54:17.333Z,6.30
2023-05-13T02:56:45.766Z,8.47
2023-05-13T02:59:14.178Z,9.37
2023-05-13T03:01:43.212Z,8.90
2023-05-13T03:04:11.718Z,9.73
2023-05-13T03:06:41.502Z,12.30
2023-05-13T03:09:09.929Z,9.73
2023-05-13T03:11:38.336Z,9.83
2023-05-13T03:14:06.747Z,8.60
2023-05-13T03:16:35.174Z,7.27
2023-05-13T03:19:03.689Z,7.77
2023-05-13T03:21:32.190Z,6.70
2023-05-13T03:24:02.031Z,6.53
2023-05-13T03:26:30.444Z,7.77
2023-05-13T03:28:58.852Z,7.93
2023-05-13T03:31:27.519Z,7.83
2023-05-13T03:33:56.148Z,6.83
2023-05-13T03:36:24.547Z,7.50
2023-05-13T03:38:53.003Z,7.60
2023-05-13T03:41:22.843Z,7.60
2023-05-13T03:43:51.273Z,6.37
2023-05-13T03:46:19.759Z,6.67
2023-05-13T03:48:48.457Z,6.43
2023-05-13T03:51:17.182Z,5.80
2023-05-13T03:53:45.818Z,4.70
2023-05-13T03:56:14.223Z,5.50
2023-05-13T03:58:44.044Z,5.33
2023-05-13T04:01:12.501Z,4.47
2023-05-13T04:03:41.268Z,4.77
2023-05-13T04:06:09.742Z,3.97
2023-05-13T04:08:38.200Z,6.53
2023-05-13T04:11:06.621Z,4.57
2023-05-13T04:13:36.494Z,3.90
2023-05-13T04:16:06.621Z,4.10
2023-05-13T04:18:35.919Z,3.50
2023-05-13T04:21:07.747Z,3.70
2023-05-13T04:23:36.183Z,3.77
2023-05-13T04:26:04.635Z,3.37
2023-05-13T04:28:33.189Z,5.27
2023-05-13T04:31:02.914Z,3.60
2023-05-13T04:33:32.817Z,2.80
2023-05-13T04:36:01.275Z,3.30
2023-05-13T04:38:29.688Z,2.57
2023-05-13T04:40:58.483Z,3.13
2023-05-13T04:43:26.980Z,3.93
2023-05-13T04:45:55.464Z,4.03
2023-05-13T04:48:23.899Z,3.03
2023-05-13T04:50:53.824Z,2.77
2023-05-13T04:53:22.694Z,3.03
2023-05-13T04:55:52.469Z,4.77
2023-05-13T04:58:20.939Z,5.50
2023-05-13T05:00:49.343Z,3.90
2023-05-13T05:03:17.803Z,4.33
2023-05-13T05:05:46.223Z,3.00
2023-05-13T05:08:16.011Z,3.90
2023-05-13T05:10:44.397Z,3.63
2023-05-13T05:13:12.799Z,4.30
2023-05-13T05:15:41.733Z,4.00
2023-05-13T05:18:10.493Z,4.67
2023-05-13T05:20:39.602Z,4.87
2023-05-13T05:23:10.539Z,3.90
2023-05-13T05:25:40.422Z,5.10
2023-05-13T05:28:09.710Z,7.40
2023-05-13T05:30:40.401Z,5.67
2023-05-13T05:33:09.211Z,6.07
2023-05-13T05:35:38.433Z,5.10
2023-05-13T05:38:07.215Z,5.03
2023-05-13T05:40:36.814Z,5.50
2023-05-13T05:43:07.343Z,4.77
2023-05-13T05:45:36.908Z,4.70
2023-05-13T05:48:06.383Z,4.17
2023-05-13T05:50:35.283Z,3.90
2023-05-13T05:53:04.006Z,5.17
2023-05-13T05:55:32.844Z,4.53
2023-05-13T05:58:05.419Z,4.93
2023-05-13T06:00:35.396Z,4.50
2023-05-13T06:03:03.920Z,4.93
2023-05-13T06:05:32.442Z,4.40
2023-05-13T06:08:00.882Z,6.27
2023-05-13T06:10:29.298Z,5.20
2023-05-13T06:12:57.820Z,6.17
2023-05-13T06:15:26.523Z,6.43
2023-05-13T06:17:56.976Z,5.73
2023-05-13T06:20:25.469Z,5.23
2023-05-13T06:22:53.885Z,4.63
2023-05-13T06:25:22.305Z,4.67
2023-05-13T06:27:50.727Z,5.40
2023-05-13T06:30:19.372Z,5.90
2023-05-13T06:33:00.118Z,4.70
2023-05-13T06:35:31.161Z,5.43
2023-05-13T06:37:59.589Z,4.33
2023-05-13T06:40:28.045Z,5.93
2023-05-13T06:42:56.655Z,5.67
2023-05-13T06:45:26.038Z,6.03
2023-05-13T06:47:54.883Z,6.57
2023-05-13T06:50:23.539Z,6.40
2023-05-13T06:52:53.537Z,7.87
2023-05-13T06:55:21.983Z,6.97
2023-05-13T06:57:50.429Z,8.73
2023-05-13T07:00:19.447Z,6.77
2023-05-13T07:02:48.018Z,8.03
2023-05-13T07:05:16.788Z,9.63
2023-05-13T07:07:45.988Z,6.97
2023-05-13T07:10:15.818Z,7.33
2023-05-13T07:12:44.319Z,10.57
2023-05-13T07:15:12.897Z,10.83
2023-05-13T07:17:41.559Z,9.47
2023-05-13T07:20:10.445Z,7.82
2023-05-13T07:22:38.851Z,6.20
2023-05-13T07:25:07.743Z,8.35
2023-05-13T07:27:37.789Z,6.03
2023-05-13T07:30:06.703Z,8.02
2023-05-13T07:32:37.016Z,6.97
2023-05-13T07:35:05.793Z,6.80
2023-05-13T07:37:34.257Z,5.20
2023-05-13T07:40:03.207Z,4.87
2023-05-13T07:42:31.812Z,5.88
2023-05-13T07:45:01.615Z,6.47
2023-05-13T07:47:31.475Z,5.20
2023-05-13T07:49:59.928Z,6.47
2023-05-13T07:52:28.402Z,7.50
2023-05-13T07:54:56.859Z,4.67
2023-05-13T07:57:26.485Z,4.18
2023-05-13T07:59:54.931Z,4.88
2023-05-13T08:02:25.241Z,6.85
2023-05-13T08:04:53.739Z,4.07
2023-05-13T08:07:22.145Z,3.72
2023-05-13T08:09:50.539Z,5.75
2023-05-13T08:12:19.010Z,7.75
2023-05-13T08:14:48.802Z,6.28
2023-05-13T08:17:18.350Z,9.05
2023-05-13T08:19:48.208Z,5.38
2023-05-13T08:22:16.752Z,5.82
2023-05-13T08:24:45.225Z,3.72
2023-05-13T08:27:13.904Z,8.02
2023-05-13T08:29:42.309Z,3.90
2023-05-13T08:32:10.759Z,4.82
2023-05-13T08:34:40.158Z,4.07
2023-05-13T08:37:09.992Z,4.18
2023-05-13T08:39:38.373Z,5.10
2023-05-13T08:42:08.726Z,7.53
2023-05-13T08:44:40.820Z,3.28
2023-05-13T08:47:12.062Z,3.55
2023-05-13T08:49:41.545Z,5.53
2023-05-13T08:52:11.713Z,7.20
2023-05-13T08:54:40.735Z,9.25
2023-05-13T08:57:09.162Z,11.52
2023-05-13T08:59:37.623Z,9.90
2023-05-13T09:02:06.917Z,10.15
2023-05-13T09:04:37.787Z,12.95
2023-05-13T09:07:07.011Z,13.70
2023-05-13T09:09:36.883Z,13.60
2023-05-13T09:12:05.880Z,12.30
2023-05-13T09:14:34.591Z,14.00
2023-05-13T09:17:03.652Z,16.17
2023-05-13T09:19:32.337Z,17.80
2023-05-13T09:22:00.908Z,20.30
2023-05-13T09:24:29.706Z,22.10
2023-05-13T09:26:59.467Z,28.42
2023-05-13T09:29:29.434Z,27.73
2023-05-13T09:31:59.027Z,30.10
2023-05-13T09:34:28.473Z,30.73
2023-05-13T09:36:58.036Z,35.08
2023-05-13T09:39:26.736Z,40.38
2023-05-13T09:41:55.283Z,39.10
2023-05-13T09:44:25.071Z,40.20
2023-05-13T09:46:53.887Z,44.83
2023-05-13T09:49:24.673Z,41.75
2023-05-13T09:51:53.215Z,41.35
2023-05-13T09:54:21.824Z,42.90
2023-05-13T09:56:50.293Z,42.80
2023-05-13T09:59:18.744Z,36.20
2023-05-13T10:01:48.818Z,34.72
2023-05-13T10:04:17.618Z,28.45
2023-05-13T10:06:47.204Z,30.27
2023-05-13T10:09:16.264Z,23.23
2023-05-13T10:11:47.115Z,30.60
2023-05-13T10:14:16.990Z,35.60
2023-05-13T10:16:46.812Z,40.47
2023-05-13T10:19:17.677Z,34.80
2023-05-13T10:21:46.280Z,30.85
2023-05-13T10:24:15.256Z,36.63
2023-05-13T10:26:43.828Z,38.83
2023-05-13T10:29:12.947Z,34.47
2023-05-13T10:31:41.668Z,40.17
2023-05-13T10:34:10.139Z,48.42
2023-05-13T10:36:55.198Z,45.30
2023-05-13T10:39:33.135Z,50.75
2023-05-13T10:42:18.603Z,47.15
2023-05-13T10:44:47.025Z,56.92
2023-05-13T10:47:15.546Z,51.28
2023-05-13T10:49:52.057Z,53.63
2023-05-13T10:52:22.076Z,53.05
2023-05-13T10:55:02.487Z,55.28
2023-05-13T10:57:31.471Z,52.20
2023-05-13T11:00:16.895Z,52.78
2023-05-13T11:02:45.566Z,53.63
2023-05-13T11:05:21.314Z,55.50
2023-05-13T11:07:58.243Z,51.13
2023-05-13T11:10:29.031Z,58.03
2023-05-13T11:13:16.210Z,67.32
2023-05-13T11:15:50.368Z,72.13
2023-05-13T11:18:20.213Z,77.63
2023-05-13T11:20:52.649Z,77.72
2023-05-13T11:23:23.151Z,74.35
2023-05-13T11:26:06.438Z,76.72
2023-05-13T11:28:49.726Z,75.25
2023-05-13T11:31:18.426Z,73.43
2023-05-13T11:34:02.112Z,74.13
2023-05-13T11:36:31.383Z,74.28
2023-05-13T11:39:08.109Z,74.45
2023-05-13T11:41:36.542Z,83.30
2023-05-13T11:44:06.687Z,85.32
2023-05-13T11:46:35.182Z,92.82
2023-05-13T11:49:05.879Z,88.38
2023-05-13T11:51:36.189Z,93.13
2023-05-13T11:54:05.009Z,89.15
2023-05-13T11:56:34.800Z,92.35
2023-05-13T11:59:15.986Z,89.32
2023-05-13T12:01:44.864Z,91.07
2023-05-13T12:04:13.673Z,83.95
2023-05-13T12:06:46.980Z,104.38
2023-05-13T12:09:15.448Z,95.43
2023-05-13T12:11:45.604Z,88.70
2023-05-13T12:14:14.127Z,90.50
2023-05-13T12:16:42.863Z,91.25
2023-05-13T12:19:11.351Z,83.57
2023-05-13T12:21:40.119Z,89.70
2023-05-13T12:24:18.615Z,90.65
2023-05-13T12:26:48.500Z,89.60
2023-05-13T12:29:17.036Z,90.43
2023-05-13T12:31:46.086Z,89.32
2023-05-13T12:34:14.547Z,90.40
2023-05-13T12:36:42.964Z,81.45
2023-05-13T12:39:12.018Z,86.40
2023-05-13T12:41:41.291Z,89.35
2023-05-13T12:44:12.128Z,79.30
2023-05-13T12:46:41.049Z,77.72
2023-05-13T12:49:12.102Z,77.18
2023-05-13T12:51:40.731Z,78.97
2023-05-13T12:54:09.213Z,87.45
2023-05-13T12:56:37.666Z,102.20
2023-05-13T12:59:06.158Z,105.82
2023-05-13T13:01:36.041Z,105.45
2023-05-13T13:04:04.745Z,101.38
2023-05-13T13:06:33.723Z,95.70
2023-05-13T13:09:02.133Z,81.63
2023-05-13T13:11:30.679Z,72.82
2023-05-13T13:13:59.116Z,65.28
2023-05-13T13:16:27.650Z,58.58
2023-05-13T13:19:01.490Z,61.53
2023-05-13T13:21:30.765Z,62.45
2023-05-13T13:23:59.239Z,67.05
2023-05-13T13:26:27.856Z,69.00
2023-05-13T13:28:56.259Z,72.22
2023-05-13T13:31:24.888Z,74.18
2023-05-13T13:33:54.161Z,67.25
2023-05-13T13:36:23.963Z,69.53
2023-05-13T13:38:52.432Z,68.70
2023-05-13T13:41:21.188Z,68.88
2023-05-13T13:43:49.600Z,64.30
2023-05-13T13:46:18.069Z,64.38
2023-05-13T13:48:46.510Z,64.38
2023-05-13T13:51:14.948Z,59.60
2023-05-13T13:53:44.773Z,65.00
2023-05-13T13:56:13.263Z,63.33
2023-05-13T13:58:41.727Z,57.67
2023-05-13T14:01:10.155Z,62.47
2023-05-13T14:03:38.749Z,67.18
2023-05-13T14:06:07.459Z,67.20
2023-05-13T14:08:35.910Z,70.50
2023-05-13T14:11:05.877Z,74.55
2023-05-13T14:13:34.291Z,73.30
2023-05-13T14:16:02.778Z,80.78
2023-05-13T14:18:31.243Z,70.15
2023-05-13T14:20:59.717Z,70.63
2023-05-13T14:23:28.204Z,76.07
2023-05-13T14:25:56.624Z,73.88
2023-05-13T14:28:26.418Z,67.90
2023-05-13T14:30:54.854Z,69.80
2023-05-13T14:33:23.321Z,74.10
2023-05-13T14:35:52.763Z,83.30
2023-05-13T14:38:21.154Z,83.47
2023-05-13T14:40:49.619Z,77.25
2023-05-13T14:43:18.067Z,88.63
2023-05-13T14:45:47.847Z,87.28
2023-05-13T14:48:16.485Z,81.03
2023-05-13T14:50:45.059Z,79.10
2023-05-13T14:53:13.692Z,66.03
2023-05-13T14:55:42.127Z,64.10
2023-05-13T14:58:10.927Z,60.65
2023-05-13T15:00:39.776Z,63.97
2023-05-13T15:03:09.987Z,64.55
2023-05-13T15:05:38.503Z,59.03
2023-05-13T15:08:07.090Z,55.92
2023-05-13T15:10:35.528Z,51.63
2023-05-13T15:13:03.949Z,43.75
2023-05-13T15:15:33.631Z,38.88
2023-05-13T15:18:02.353Z,46.78
2023-05-13T15:20:32.222Z,52.85
2023-05-13T15:23:00.661Z,49.17
2023-05-13T15:25:29.100Z,45.67
2023-05-13T15:27:57.536Z,39.70
2023-05-13T15:30:26.029Z,40.10
2023-05-13T15:32:54.499Z,42.53
2023-05-13T15:35:23.063Z,44.67
2023-05-13T15:37:52.889Z,45.30
2023-05-13T15:40:21.585Z,43.05
2023-05-13T15:42:50.094Z,33.63
2023-05-13T15:45:18.625Z,37.55
2023-05-13T15:47:47.193Z,42.13
2023-05-13T15:50:15.678Z,39.00
2023-05-13T15:52:44.109Z,38.90
2023-05-13T15:55:13.982Z,40.30
2023-05-13T15:57:42.402Z,41.13
2023-05-13T16:00:11.429Z,42.55
2023-05-13T16:02:41.454Z,39.13
2023-05-13T16:05:11.868Z,42.78
2023-05-13T16:07:40.352Z,44.15
2023-05-13T16:10:08.835Z,47.58
2023-05-13T16:12:38.992Z,44.55
2023-05-13T16:15:07.956Z,39.13
2023-05-13T16:17:36.854Z,41.95
2023-05-13T16:20:05.621Z,38.15
2023-05-13T16:22:34.854Z,36.90
2023-05-13T16:25:04.708Z,36.83
2023-05-13T16:27:33.568Z,40.30
2023-05-13T16:30:04.073Z,42.00
2023-05-13T16:32:33.052Z,39.20
2023-05-13T16:35:01.645Z,42.10
2023-05-13T16:37:30.300Z,38.85
2023-05-13T16:39:58.952Z,38.08
2023-05-13T16:42:27.474Z,32.80
2023-05-13T16:44:55.946Z,43.50
2023-05-13T16:47:25.808Z,43.08
2023-05-13T16:49:56.133Z,43.72
2023-05-13T16:52:24.591Z,34.22
2023-05-13T16:54:53.502Z,33.50
2023-05-13T16:57:22.845Z,26.48
2023-05-13T16:59:51.279Z,23.23
2023-05-13T17:02:19.728Z,17.55
2023-05-13T17:04:49.536Z,10.52
2023-05-13T17:07:17.944Z,7.47
2023-05-13T17:09:47.097Z,6.38
2023-05-13T17:12:16.645Z,6.72
2023-05-13T17:14:45.089Z,5.50
2023-05-13T17:17:13.665Z,5.05
2023-05-13T17:19:42.220Z,3.95
2023-05-13T17:22:13.319Z,3.22
2023-05-13T17:24:41.795Z,3.15
2023-05-13T17:27:10.248Z,3.25
2023-05-13T17:29:38.654Z,4.00
2023-05-13T17:32:07.513Z,5.15
2023-05-13T17:34:35.999Z,4.40
2023-05-13T17:37:04.441Z,3.47
2023-05-13T17:39:34.262Z,4.75
2023-05-13T17:42:02.683Z,2.72
2023-05-13T17:44:31.103Z,5.22
2023-05-13T17:46:59.516Z,3.28
2023-05-13T17:49:27.943Z,2.58
2023-05-13T17:51:56.379Z,3.75
2023-05-13T17:54:24.800Z,2.72
2023-05-13T17:56:54.591Z,4.65
2023-05-13T17:59:23.008Z,3.40
2023-05-13T18:01:51.552Z,4.22
2023-05-13T18:04:20.126Z,4.50
2023-05-13T18:06:48.529Z,2.28
2023-05-13T18:09:16.983Z,3.15
2023-05-13T18:11:45.380Z,3.13
2023-05-13T18:14:15.163Z,3.13
2023-05-13T18:16:43.714Z,2.78
2023-05-13T18:19:12.260Z,2.35
2023-05-13T18:21:40.782Z,2.17
2023-05-13T18:24:09.519Z,3.35
2023-05-13T18:26:37.913Z,2.13
2023-05-13T18:29:06.437Z,2.38
2023-05-13T18:31:36.315Z,2.23
2023-05-13T18:34:05.013Z,2.50
2023-05-13T18:36:33.826Z,2.30
2023-05-13T18:39:02.269Z,2.83
2023-05-13T18:41:31.178Z,5.78
2023-05-13T18:43:59.642Z,3.42
2023-05-13T18:46:28.172Z,3.60
2023-05-13T18:48:58.936Z,2.65
2023-05-13T18:51:27.357Z,2.35
2023-05-13T18:53:56.037Z,2.88
2023-05-13T18:56:24.490Z,2.37
2023-05-13T18:58:52.917Z,2.87
2023-05-13T19:01:21.448Z,4.50
2023-05-13T19:03:49.975Z,2.10
2023-05-13T19:06:20.211Z,3.20
2023-05-13T19:08:48.694Z,2.37
2023-05-13T19:11:17.135Z,2.20
2023-05-13T19:13:47.626Z,2.77
2023-05-13T19:16:16.518Z,3.63
2023-05-13T19:18:45.003Z,2.17
2023-05-13T19:21:13.423Z,3.03
2023-05-13T19:23:43.329Z,2.40
2023-05-13T19:26:11.777Z,2.93
2023-05-13T19:28:40.694Z,3.80
2023-05-13T19:31:09.146Z,2.93
2023-05-13T19:33:38.060Z,3.90
2023-05-13T19:36:06.956Z,3.10
2023-05-13T19:38:35.488Z,3.30
2023-05-13T19:41:05.640Z,4.23
2023-05-13T19:43:34.193Z,2.20
2023-05-13T19:46:02.835Z,4.87
2023-05-13T19:48:31.296Z,3.20
2023-05-13T19:50:59.724Z,4.10
2023-05-13T19:53:28.201Z,5.07
2023-05-13T19:55:56.743Z,2.93
2023-05-13T19:58:26.591Z,3.57
2023-05-13T20:00:55.937Z,3.13
2023-05-13T20:03:24.528Z,3.00
2023-05-13T20:05:53.948Z,4.33
2023-05-13T20:08:23.003Z,3.27
2023-05-13T20:10:51.506Z,2.67
2023-05-13T20:13:19.911Z,2.77
2023-05-13T20:15:49.844Z,4.77
2023-05-13T20:18:18.364Z,5.93
2023-05-13T20:20:48.020Z,3.93
2023-05-13T20:23:16.496Z,6.70
2023-05-13T20:25:44.916Z,6.97
2023-05-13T20:28:13.363Z,3.37
2023-05-13T20:30:42.814Z,5.30
2023-05-13T20:33:12.733Z,3.00
2023-05-13T20:35:41.242Z,4.97
2023-05-13T20:38:09.706Z,5.33
2023-05-13T20:40:38.176Z,3.40
2023-05-13T20:43:07.790Z,3.23
2023-05-13T20:45:39.537Z,4.67
2023-05-13T20:48:09.231Z,3.77
2023-05-13T20:50:39.139Z,3.63
2023-05-13T20:53:07.701Z,5.53
2023-05-13T20:55:36.101Z,3.73
2023-05-13T20:58:04.530Z,3.33
2023-05-13T21:00:32.982Z,5.70
2023-05-13T21:03:01.807Z,3.17
2023-05-13T21:05:30.333Z,4.77
2023-05-13T21:08:00.162Z,4.10
2023-05-13T21:10:28.607Z,4.93
2023-05-13T21:12:57.002Z,5.07
2023-05-13T21:15:25.453Z,4.80
2023-05-13T21:17:54.392Z,5.27
2023-05-13T21:20:23.289Z,5.83
2023-05-13T21:22:51.985Z,5.10
2023-05-13T21:25:21.773Z,5.27
2023-05-13T21:27:50.637Z,4.83
2023-05-13T21:30:19.135Z,5.23
2023-05-13T21:32:47.692Z,4.63
2023-05-13T21:35:16.286Z,4.97
2023-05-13T21:37:47.126Z,6.00
2023-05-13T21:40:15.997Z,3.90
2023-05-13T21:42:45.838Z,4.10
2023-05-13T21:45:15.123Z,4.07
2023-05-13T21:47:43.626Z,8.73
2023-05-13T21:50:12.427Z,6.20
2023-05-13T21:52:41.200Z,4.00
2023-05-13T21:55:10.021Z,5.20
2023-05-13T21:57:38.478Z,4.93
2023-05-13T22:00:15.042Z,6.03
2023-05-13T22:02:43.676Z,4.67
2023-05-13T22:05:12.278Z,4.10
2023-05-13T22:07:40.699Z,4.50
2023-05-13T22:10:09.589Z,5.43
2023-05-13T22:12:38.040Z,3.77
2023-05-13T22:15:06.904Z,3.53
2023-05-13T22:17:36.876Z,6.87
2023-05-13T22:20:05.780Z,3.57
2023-05-13T22:22:34.221Z,4.20
2023-05-13T22:25:03.642Z,6.47
2023-05-13T22:27:32.076Z,4.57
2023-05-13T22:30:00.547Z,4.13
2023-05-13T22:32:29.093Z,3.23
2023-05-13T22:34:58.985Z,4.70
2023-05-13T22:37:27.425Z,3.30
2023-05-13T22:39:55.861Z,3.47
2023-05-13T22:42:24.307Z,4.87
2023-05-13T22:44:52.772Z,4.60
2023-05-13T22:47:21.264Z,3.27
2023-05-13T22:49:49.724Z,3.70
2023-05-13T22:52:19.577Z,3.87
2023-05-13T22:54:48.019Z,3.20
2023-05-13T22:57:16.432Z,3.87
2023-05-13T22:59:44.997Z,4.13
2023-05-13T23:02:13.489Z,3.97
2023-05-13T23:04:42.020Z,3.57
2023-05-13T23:07:10.419Z,3.33
2023-05-13T23:09:40.481Z,3.40
2023-05-13T23:12:09.242Z,4.57
2023-05-13T23:14:37.672Z,4.60
2023-05-13T23:17:06.205Z,3.43
2023-05-13T23:19:34.636Z,3.57
2023-05-13T23:22:03.066Z,4.73
2023-05-13T23:24:31.514Z,3.13
2023-05-13T23:27:01.336Z,3.73
2023-05-13T23:29:29.894Z,3.30
2023-05-13T23:31:58.448Z,4.67
2023-05-13T23:34:27.896Z,4.20
2023-05-13T23:36:56.503Z,3.37
2023-05-13T23:39:24.961Z,4.40
2023-05-13T23:41:53.393Z,4.53
2023-05-13T23:44:23.211Z,4.83
2023-05-13T23:46:51.680Z,4.10
2023-05-13T23:49:20.093Z,3.20
2023-05-13T23:51:48.500Z,3.60
2023-05-13T23:54:16.952Z,4.50
2023-05-13T23:56:45.399Z,3.97
2023-05-13T23:59:13.820Z,4.70
